createdAt,value
2022-08-23T00:00:15.522Z,55.26
2022-08-23T00:02:46.138Z,55.06
2022-08-23T00:05:14.518Z,55.20
2022-08-23T00:07:45.610Z,55.40
2022-08-23T00:10:17.312Z,55.54
2022-08-23T00:12:48.379Z,55.71
2022-08-23T00:15:19.303Z,55.67
2022-08-23T00:17:48.189Z,55.80
2022-08-23T00:20:19.773Z,56.12
2022-08-23T00:22:48.277Z,56.04
2022-08-23T00:25:17.511Z,56.13
2022-08-23T00:27:47.226Z,56.44
2022-08-23T00:30:17.791Z,56.49
2022-08-23T00:32:46.708Z,56.73
2022-08-23T00:35:27.087Z,56.40
2022-08-23T00:38:33.449Z,56.56
2022-08-23T00:40:52.142Z,57.08
2022-08-23T00:43:48.030Z,57.12
2022-08-23T00:46:47.692Z,56.99
2022-08-23T00:49:18.907Z,57.22
2022-08-23T00:51:54.322Z,56.86
2022-08-23T00:54:27.248Z,57.24
2022-08-23T00:56:59.049Z,57.40
2022-08-23T00:59:29.033Z,57.59
2022-08-23T01:01:57.479Z,57.52
2022-08-23T01:04:28.472Z,57.37
2022-08-23T01:07:05.119Z,57.51
2022-08-23T01:09:33.546Z,57.87
2022-08-23T01:12:09.975Z,57.91
2022-08-23T01:14:44.771Z,58.08
2022-08-23T01:17:20.826Z,57.99
2022-08-23T01:19:54.851Z,58.13
2022-08-23T01:22:31.346Z,57.92
2022-08-23T01:25:08.473Z,57.84
2022-08-23T01:27:40.398Z,57.97
2022-08-23T01:30:13.699Z,57.87
2022-08-23T01:32:49.037Z,58.08
2022-08-23T01:40:26.427Z,58.70
2022-08-23T01:42:55.057Z,58.74
2022-08-23T01:45:23.484Z,59.05
2022-08-23T01:47:51.811Z,58.93
2022-08-23T01:50:20.333Z,58.66
2022-08-23T01:52:48.735Z,58.65
2022-08-23T01:55:17.945Z,58.48
2022-08-23T01:57:50.611Z,58.61
2022-08-23T02:00:20.784Z,58.59
2022-08-23T02:02:49.116Z,58.48
2022-08-23T02:05:19.278Z,58.82
2022-08-23T02:07:48.220Z,58.87
2022-08-23T02:10:17.561Z,59.38
2022-08-23T02:12:48.000Z,59.63
2022-08-23T02:15:17.789Z,59.91
2022-08-23T02:17:46.617Z,59.63
2022-08-23T02:20:15.313Z,59.52
2022-08-23T02:22:43.907Z,59.09
2022-08-23T02:25:12.476Z,59.28
2022-08-23T02:27:44.038Z,59.52
2022-08-23T02:30:15.330Z,59.45
2022-08-23T02:32:44.237Z,59.41
2022-08-23T02:37:58.769Z,59.86
2022-08-23T02:40:27.338Z,59.92
2022-08-23T02:42:55.745Z,60.01
2022-08-23T02:45:25.521Z,60.07
2022-08-23T02:47:53.838Z,60.01
2022-08-23T02:50:22.632Z,60.40
2022-08-23T02:52:50.977Z,60.63
2022-08-23T02:55:20.343Z,60.79
2022-08-23T02:57:51.543Z,60.99
2022-08-23T03:00:21.519Z,61.05
2022-08-23T03:02:51.191Z,60.78
2022-08-23T03:05:19.758Z,60.93
2022-08-23T03:07:50.867Z,61.17
2022-08-23T03:10:19.218Z,61.34
2022-08-23T03:12:47.534Z,61.24
2022-08-23T03:15:15.997Z,61.40
2022-08-23T03:17:44.306Z,61.42
2022-08-23T03:20:14.234Z,61.81
2022-08-23T03:22:48.486Z,61.86
2022-08-23T03:25:23.854Z,61.98
2022-08-23T03:27:52.132Z,62.07
2022-08-23T03:30:20.579Z,61.98
2022-08-23T03:32:49.325Z,61.85
2022-08-23T03:35:19.403Z,62.03
2022-08-23T03:37:49.097Z,62.36
2022-08-23T03:40:20.637Z,62.46
2022-08-23T03:42:48.918Z,62.32
2022-08-23T03:45:17.278Z,62.36
2022-08-23T03:47:45.536Z,62.56
2022-08-23T03:50:13.847Z,62.51
2022-08-23T03:52:43.605Z,62.89
2022-08-23T03:55:12.076Z,63.60
2022-08-23T03:57:40.439Z,63.82
2022-08-23T04:00:11.901Z,63.06
2022-08-23T04:02:40.148Z,62.93
2022-08-23T04:05:10.937Z,62.47
2022-08-23T04:07:40.112Z,62.27
2022-08-23T04:10:15.062Z,62.07
2022-08-23T04:12:43.409Z,62.11
2022-08-23T04:15:13.507Z,62.31
2022-08-23T04:17:42.632Z,62.13
2022-08-23T04:20:12.058Z,62.37
2022-08-23T04:22:40.315Z,61.63
2022-08-23T04:25:33.231Z,61.81
2022-08-23T04:27:59.503Z,61.21
2022-08-23T04:30:29.003Z,61.54
2022-08-23T04:32:57.377Z,59.19
2022-08-23T04:35:26.609Z,64.05
2022-08-23T04:37:55.276Z,64.98
2022-08-23T04:40:42.569Z,64.76
2022-08-23T04:43:10.785Z,65.22
2022-08-23T04:45:40.178Z,64.70
2022-08-23T04:48:11.799Z,63.87
2022-08-23T04:50:41.179Z,64.79
2022-08-23T04:53:10.016Z,63.93
2022-08-23T04:55:39.825Z,62.64
2022-08-23T04:58:08.418Z,62.94
2022-08-23T05:00:36.795Z,61.31
2022-08-23T05:03:05.100Z,62.04
2022-08-23T05:05:33.559Z,60.84
2022-08-23T05:08:02.080Z,57.96
2022-08-23T05:10:30.521Z,59.01
2022-08-23T05:13:00.109Z,59.31
2022-08-23T05:15:28.378Z,59.17
2022-08-23T05:17:57.516Z,57.69
2022-08-23T05:20:26.466Z,55.50
2022-08-23T05:22:55.385Z,60.57
2022-08-23T05:25:24.405Z,61.65
2022-08-23T05:27:52.605Z,60.28
2022-08-23T05:30:22.332Z,57.68
2022-08-23T05:32:50.613Z,61.68
2022-08-23T05:35:18.980Z,61.88
2022-08-23T05:37:47.181Z,59.83
2022-08-23T05:40:15.612Z,58.85
2022-08-23T05:42:43.911Z,60.71
2022-08-23T05:45:12.301Z,56.05
2022-08-23T05:47:41.861Z,57.54
2022-08-23T05:50:11.441Z,52.00
2022-08-23T05:52:40.443Z,54.69
2022-08-23T05:55:09.524Z,52.09
2022-08-23T05:57:38.179Z,55.52
2022-08-23T06:00:09.227Z,57.70
2022-08-23T06:02:37.420Z,52.45
2022-08-23T06:05:08.148Z,55.05
2022-08-23T06:07:36.905Z,54.47
2022-08-23T06:10:06.348Z,54.99
2022-08-23T06:12:34.897Z,52.22
2022-08-23T06:15:03.734Z,56.29
2022-08-23T06:17:32.024Z,58.51
2022-08-23T06:20:00.254Z,58.25
2022-08-23T06:22:31.259Z,57.82
2022-08-23T06:24:59.526Z,56.97
2022-08-23T06:27:28.684Z,57.78
2022-08-23T06:29:56.868Z,59.94
2022-08-23T06:32:25.129Z,59.49
2022-08-23T06:34:59.826Z,57.73
2022-08-23T06:37:43.018Z,54.83
2022-08-23T06:40:11.934Z,57.67
2022-08-23T06:42:40.178Z,53.75
2022-08-23T06:45:09.440Z,59.47
2022-08-23T06:47:38.256Z,56.96
2022-08-23T06:50:07.534Z,56.37
2022-08-23T06:52:37.046Z,54.96
2022-08-23T06:55:13.132Z,53.74
2022-08-23T06:57:42.311Z,52.81
2022-08-23T07:00:12.622Z,51.64
2022-08-23T07:02:40.889Z,53.64
2022-08-23T07:05:10.245Z,54.47
2022-08-23T07:07:43.941Z,53.55
2022-08-23T07:10:15.664Z,52.51
2022-08-23T07:12:44.566Z,54.20
2022-08-23T07:15:13.516Z,54.61
2022-08-23T07:17:41.783Z,57.48
2022-08-23T07:20:10.694Z,50.89
2022-08-23T07:22:39.951Z,49.16
2022-08-23T07:25:08.983Z,50.38
2022-08-23T07:27:39.535Z,51.14
2022-08-23T07:30:09.296Z,50.35
2022-08-23T07:32:37.510Z,48.79
2022-08-23T07:35:07.629Z,49.21
2022-08-23T07:37:35.900Z,49.88
2022-08-23T07:40:07.270Z,49.75
2022-08-23T07:42:35.507Z,48.79
2022-08-23T07:45:06.208Z,50.56
2022-08-23T07:47:38.081Z,49.39
2022-08-23T07:50:07.727Z,49.80
2022-08-23T07:52:36.469Z,49.44
2022-08-23T07:55:05.397Z,50.42
2022-08-23T07:57:33.587Z,52.75
2022-08-23T08:00:01.818Z,50.54
2022-08-23T08:02:31.406Z,49.55
2022-08-23T08:04:59.698Z,52.34
2022-08-23T08:07:28.272Z,51.57
2022-08-23T08:10:03.749Z,50.51
2022-08-23T08:12:32.798Z,48.00
2022-08-23T08:15:01.453Z,48.64
2022-08-23T08:17:31.024Z,46.83
2022-08-23T08:19:59.282Z,47.78
2022-08-23T08:22:27.607Z,48.16
2022-08-23T08:24:55.883Z,45.20
2022-08-23T08:27:24.113Z,43.64
2022-08-23T08:29:52.591Z,45.73
2022-08-23T08:32:21.157Z,47.77
2022-08-23T08:34:51.001Z,48.00
2022-08-23T08:37:19.609Z,47.96
2022-08-23T08:39:48.106Z,45.69
2022-08-23T08:42:31.674Z,46.88
2022-08-23T08:45:03.908Z,48.82
2022-08-23T08:47:41.802Z,45.81
2022-08-23T08:50:20.431Z,44.86
2022-08-23T08:52:53.351Z,45.56
2022-08-23T08:55:26.178Z,46.24
2022-08-23T08:57:56.538Z,43.14
2022-08-23T09:00:27.485Z,42.27
2022-08-23T09:02:58.115Z,45.34
2022-08-23T09:05:39.740Z,43.36
2022-08-23T09:08:24.812Z,42.23
2022-08-23T09:10:58.175Z,40.56
2022-08-23T09:14:01.286Z,43.24
2022-08-23T09:16:41.936Z,42.64
2022-08-23T09:19:10.644Z,41.24
2022-08-23T09:21:46.874Z,41.20
2022-08-23T09:24:15.705Z,41.59
2022-08-23T09:26:45.209Z,39.69
2022-08-23T09:29:21.926Z,42.13
2022-08-23T09:31:53.859Z,41.36
2022-08-23T09:34:38.679Z,42.99
2022-08-23T09:37:19.079Z,42.30
2022-08-23T09:39:50.756Z,39.97
2022-08-23T09:42:31.550Z,39.05
2022-08-23T09:45:01.116Z,40.35
2022-08-23T09:47:38.471Z,40.91
2022-08-23T09:50:25.688Z,42.39
2022-08-23T09:53:04.277Z,42.48
2022-08-23T09:55:36.265Z,40.53
2022-08-23T09:58:08.443Z,40.84
2022-08-23T10:00:38.455Z,43.07
2022-08-23T10:03:26.351Z,43.50
2022-08-23T10:05:57.356Z,38.84
2022-08-23T10:08:32.537Z,41.49
2022-08-23T10:11:08.698Z,41.86
2022-08-23T10:13:38.713Z,39.44
2022-08-23T10:16:17.932Z,39.27
2022-08-23T10:18:57.987Z,39.99
2022-08-23T10:21:36.860Z,39.18
2022-08-23T10:24:22.845Z,41.68
2022-08-23T10:27:27.029Z,37.37
2022-08-23T10:30:03.386Z,40.92
2022-08-23T10:32:45.674Z,40.71
2022-08-23T10:35:32.162Z,39.15
2022-08-23T10:38:33.471Z,42.22
2022-08-23T10:41:25.342Z,38.01
2022-08-23T10:44:04.118Z,38.90
2022-08-23T10:46:38.669Z,37.69
2022-08-23T10:49:09.567Z,38.74
2022-08-23T10:51:42.141Z,41.14
2022-08-23T10:54:18.582Z,35.64
2022-08-23T10:56:51.207Z,36.62
2022-08-23T10:59:24.053Z,37.49
2022-08-23T11:02:00.925Z,37.93
2022-08-23T11:04:38.058Z,37.41
2022-08-23T11:07:19.515Z,39.84
2022-08-23T11:10:09.960Z,40.18
2022-08-23T11:12:59.542Z,37.51
2022-08-23T11:15:44.532Z,38.08
2022-08-23T11:18:39.020Z,40.07
2022-08-23T11:21:11.849Z,38.54
2022-08-23T11:23:54.324Z,38.72
2022-08-23T11:26:56.213Z,37.74
2022-08-23T11:29:34.364Z,38.34
2022-08-23T11:32:23.184Z,42.43
2022-08-23T11:35:01.105Z,39.16
2022-08-23T11:37:49.368Z,38.16
2022-08-23T11:40:39.260Z,35.54
2022-08-23T11:43:12.826Z,39.74
2022-08-23T11:45:47.123Z,35.71
2022-08-23T11:48:20.259Z,35.29
2022-08-23T11:51:10.303Z,36.94
2022-08-23T11:54:09.390Z,35.29
2022-08-23T11:57:00.835Z,34.84
2022-08-23T11:59:44.507Z,35.40
2022-08-23T12:03:03.079Z,35.11
2022-08-23T12:06:12.678Z,37.92
2022-08-23T12:09:12.191Z,37.59
2022-08-23T12:12:12.238Z,38.01
2022-08-23T12:14:53.768Z,39.52
2022-08-23T12:18:07.874Z,36.93
2022-08-23T12:20:38.936Z,36.63
2022-08-23T12:23:16.755Z,37.36
2022-08-23T12:25:46.365Z,35.03
2022-08-23T12:28:34.841Z,36.07
2022-08-23T12:31:13.451Z,37.57
2022-08-23T12:33:54.682Z,35.77
2022-08-23T12:36:31.189Z,36.68
2022-08-23T12:39:07.270Z,39.06
2022-08-23T12:41:51.397Z,37.35
2022-08-23T12:44:22.219Z,35.54
2022-08-23T12:46:51.907Z,37.10
2022-08-23T12:49:29.900Z,36.95
2022-08-23T12:52:01.370Z,36.28
2022-08-23T12:54:39.730Z,36.57
2022-08-23T12:57:11.754Z,35.97
2022-08-23T12:59:45.319Z,38.79
2022-08-23T13:02:28.267Z,37.42
2022-08-23T13:05:03.679Z,37.66
2022-08-23T13:07:32.785Z,37.25
2022-08-23T13:10:01.525Z,37.45
2022-08-23T13:12:30.186Z,38.29
2022-08-23T13:15:01.735Z,41.66
2022-08-23T13:17:36.784Z,40.79
2022-08-23T13:20:21.830Z,38.86
2022-08-23T13:22:59.742Z,40.89
2022-08-23T13:25:32.346Z,38.43
2022-08-23T13:28:03.778Z,36.23
2022-08-23T13:30:36.381Z,37.86
2022-08-23T13:33:23.072Z,36.32
2022-08-23T13:36:13.030Z,37.24
2022-08-23T13:38:43.877Z,38.05
2022-08-23T13:41:27.640Z,37.52
2022-08-23T13:43:56.549Z,37.51
2022-08-23T13:46:27.585Z,38.18
2022-08-23T13:49:00.442Z,38.65
2022-08-23T13:51:37.399Z,38.72
2022-08-23T13:54:10.765Z,42.33
2022-08-23T13:56:47.149Z,40.19
2022-08-23T13:59:23.353Z,41.00
2022-08-23T14:01:55.653Z,37.57
2022-08-23T14:04:24.466Z,37.53
2022-08-23T14:06:54.430Z,41.81
2022-08-23T14:09:23.168Z,40.09
2022-08-23T14:11:55.858Z,36.92
2022-08-23T14:14:24.886Z,36.27
2022-08-23T14:16:54.550Z,36.30
2022-08-23T14:22:13.431Z,36.86
2022-08-23T14:24:42.204Z,36.31
2022-08-23T14:27:11.444Z,35.86
2022-08-23T14:29:40.125Z,36.73
2022-08-23T14:32:08.735Z,37.58
2022-08-23T14:34:37.218Z,40.42
2022-08-23T14:38:02.013Z,37.08
2022-08-23T14:39:55.761Z,36.74
2022-08-23T14:42:25.167Z,37.12
2022-08-23T14:44:53.714Z,38.43
2022-08-23T14:47:22.251Z,38.95
2022-08-23T14:49:53.770Z,40.86
2022-08-23T14:52:23.193Z,37.63
2022-08-23T14:54:51.775Z,40.24
2022-08-23T14:57:21.810Z,39.88
2022-08-23T14:59:50.376Z,41.20
2022-08-23T15:02:25.606Z,38.73
2022-08-23T15:04:55.064Z,38.61
2022-08-23T15:07:24.172Z,38.07
2022-08-23T15:09:55.502Z,38.74
2022-08-23T15:15:20.638Z,40.29
2022-08-23T15:17:53.791Z,37.52
2022-08-23T15:20:24.100Z,38.12
2022-08-23T15:22:55.291Z,39.63
2022-08-23T15:25:25.406Z,40.64
2022-08-23T15:27:55.745Z,37.85
2022-08-23T15:30:25.016Z,38.65
2022-08-23T15:32:56.780Z,37.57
2022-08-23T15:35:27.044Z,39.47
2022-08-23T15:37:57.354Z,41.66
2022-08-23T15:40:26.483Z,39.45
2022-08-23T15:42:57.511Z,43.87
2022-08-23T15:45:26.056Z,40.90
2022-08-23T15:47:56.947Z,42.27
2022-08-23T15:50:28.676Z,41.07
2022-08-23T15:52:58.228Z,40.76
2022-08-23T15:55:31.195Z,39.07
2022-08-23T15:58:01.447Z,41.62
2022-08-23T16:00:30.380Z,39.17
2022-08-23T16:03:18.997Z,40.37
2022-08-23T16:05:50.190Z,40.44
2022-08-23T16:08:22.623Z,39.27
2022-08-23T16:10:51.409Z,42.16
2022-08-23T16:13:21.901Z,42.13
2022-08-23T16:15:51.043Z,40.17
2022-08-23T16:18:19.877Z,37.98
2022-08-23T16:20:48.400Z,42.87
2022-08-23T16:23:17.039Z,42.85
2022-08-23T16:25:45.550Z,40.39
2022-08-23T16:28:14.134Z,42.54
2022-08-23T16:30:44.061Z,42.28
2022-08-23T16:33:12.686Z,39.52
2022-08-23T16:35:41.251Z,42.88
2022-08-23T16:38:09.947Z,43.34
2022-08-23T16:40:38.469Z,43.36
2022-08-23T16:43:07.035Z,41.98
2022-08-23T16:45:35.627Z,39.68
2022-08-23T16:48:05.810Z,42.18
2022-08-23T16:50:34.331Z,43.65
2022-08-23T16:53:07.100Z,43.56
2022-08-23T16:55:36.301Z,39.64
2022-08-23T16:58:05.456Z,41.53
2022-08-23T17:00:34.047Z,39.92
2022-08-23T17:03:04.493Z,41.06
2022-08-23T17:05:33.142Z,39.51
2022-08-23T17:08:01.924Z,38.91
2022-08-23T17:10:30.609Z,42.50
2022-08-23T17:12:59.644Z,42.52
2022-08-23T17:15:32.008Z,39.97
2022-08-23T17:18:01.128Z,39.91
2022-08-23T17:20:34.587Z,43.16
2022-08-23T17:23:05.674Z,41.33
2022-08-23T17:25:34.652Z,40.62
2022-08-23T17:28:03.494Z,39.58
2022-08-23T17:30:33.097Z,40.62
2022-08-23T17:33:01.843Z,40.90
2022-08-23T17:35:34.287Z,39.55
2022-08-23T17:38:03.747Z,40.17
2022-08-23T17:40:38.711Z,41.14
2022-08-23T17:43:07.719Z,41.31
2022-08-23T17:45:42.344Z,38.67
2022-08-23T17:48:10.949Z,41.66
2022-08-23T17:50:43.719Z,41.66
2022-08-23T17:53:14.404Z,39.62
2022-08-23T17:55:43.698Z,41.21
2022-08-23T17:58:14.146Z,42.08
2022-08-23T18:00:42.759Z,42.06
2022-08-23T18:03:11.296Z,41.51
2022-08-23T18:05:42.985Z,40.82
2022-08-23T18:08:11.558Z,41.08
2022-08-23T18:10:40.382Z,41.45
2022-08-23T18:13:08.926Z,41.73
2022-08-23T18:15:37.684Z,42.51
2022-08-23T18:18:06.408Z,42.51
2022-08-23T18:20:35.344Z,42.86
2022-08-23T18:23:05.877Z,42.91
2022-08-23T18:25:34.588Z,43.49
2022-08-23T18:28:08.609Z,44.46
2022-08-23T18:30:38.946Z,44.81
2022-08-23T18:33:12.366Z,45.61
2022-08-23T18:35:41.522Z,45.25
2022-08-23T18:38:12.590Z,44.82
2022-08-23T18:40:46.173Z,45.06
2022-08-23T18:43:16.859Z,45.19
2022-08-23T18:45:46.152Z,45.87
2022-08-23T18:48:14.993Z,46.11
2022-08-23T18:50:44.215Z,46.25
2022-08-23T18:53:14.843Z,46.30
2022-08-23T18:55:43.874Z,46.47
2022-08-23T18:58:12.529Z,46.74
2022-08-23T19:00:41.786Z,46.77
2022-08-23T19:03:11.283Z,47.07
2022-08-23T19:05:42.022Z,46.60
2022-08-23T19:08:13.441Z,46.47
2022-08-23T19:10:43.298Z,46.87
2022-08-23T19:13:12.445Z,47.04
2022-08-23T19:15:42.086Z,47.19
2022-08-23T19:18:11.022Z,47.63
2022-08-23T19:20:40.041Z,47.97
2022-08-23T19:23:08.585Z,47.96
2022-08-23T19:25:38.752Z,48.39
2022-08-23T19:28:07.777Z,48.62
2022-08-23T19:30:36.585Z,49.22
2022-08-23T19:33:05.549Z,49.40
2022-08-23T19:35:34.308Z,49.63
2022-08-23T19:38:03.153Z,49.92
2022-08-23T19:40:31.972Z,49.92
2022-08-23T19:43:02.481Z,49.63
2022-08-23T19:45:32.016Z,49.44
2022-08-23T19:48:02.853Z,49.45
2022-08-23T19:50:31.467Z,49.74
2022-08-23T19:53:00.259Z,49.78
2022-08-23T19:55:29.448Z,50.17
2022-08-23T19:57:58.445Z,50.77
2022-08-23T20:00:31.620Z,50.94
2022-08-23T20:03:00.231Z,50.58
2022-08-23T20:05:29.063Z,50.73
2022-08-23T20:07:57.610Z,51.01
2022-08-23T20:10:26.229Z,51.57
2022-08-23T20:12:55.013Z,51.51
2022-08-23T20:15:23.567Z,51.49
2022-08-23T20:17:53.425Z,51.21
2022-08-23T20:20:22.459Z,51.29
2022-08-23T20:23:08.834Z,51.50
2022-08-23T20:25:37.378Z,51.63
2022-08-23T20:28:08.332Z,51.66
2022-08-23T20:30:37.538Z,51.91
2022-08-23T20:33:07.442Z,52.13
2022-08-23T20:35:35.984Z,52.08
2022-08-23T20:38:04.630Z,52.01
2022-08-23T20:40:33.222Z,52.53
2022-08-23T20:43:01.889Z,52.64
2022-08-23T20:45:30.501Z,52.78
2022-08-23T20:47:59.037Z,52.84
2022-08-23T20:50:29.002Z,52.65
2022-08-23T20:52:57.556Z,53.07
2022-08-23T20:55:26.187Z,53.45
2022-08-23T20:57:54.697Z,53.44
2022-08-23T21:00:23.355Z,54.09
2022-08-23T21:02:51.884Z,54.13
2022-08-23T21:05:20.486Z,54.47
2022-08-23T21:07:50.443Z,54.70
2022-08-23T21:10:18.974Z,54.85
2022-08-23T21:12:48.371Z,55.21
2022-08-23T21:15:16.877Z,55.89
2022-08-23T21:17:46.769Z,56.49
2022-08-23T21:20:16.660Z,57.54
2022-08-23T21:22:45.195Z,57.90
2022-08-23T21:25:15.463Z,57.91
2022-08-23T21:27:43.930Z,58.52
2022-08-23T21:30:13.313Z,59.07
2022-08-23T21:32:41.933Z,59.19
2022-08-23T21:35:11.364Z,59.76
2022-08-23T21:37:40.555Z,59.62
2022-08-23T21:40:10.270Z,59.65
2022-08-23T21:42:40.348Z,60.13
2022-08-23T21:45:10.230Z,60.20
2022-08-23T21:47:38.724Z,60.25
2022-08-23T21:50:08.235Z,60.56
2022-08-23T21:52:36.727Z,60.21
2022-08-23T21:55:06.457Z,60.61
2022-08-23T21:57:35.098Z,60.70
2022-08-23T22:00:10.669Z,60.92
2022-08-23T22:02:40.174Z,61.11
2022-08-23T22:05:09.862Z,60.98
2022-08-23T22:07:39.427Z,60.83
2022-08-23T22:10:09.555Z,60.53
2022-08-23T22:12:39.164Z,60.24
2022-08-23T22:15:10.353Z,60.44
2022-08-23T22:17:38.861Z,60.39
2022-08-23T22:20:09.483Z,60.71
2022-08-23T22:22:38.651Z,60.89
2022-08-23T22:25:08.763Z,61.06
2022-08-23T22:27:37.381Z,61.07
2022-08-23T22:30:06.687Z,61.54
2022-08-23T22:32:36.584Z,61.65
2022-08-23T22:35:06.334Z,61.66
2022-08-23T22:37:34.814Z,62.72
2022-08-23T22:40:03.678Z,62.74
2022-08-23T22:42:33.630Z,62.39
2022-08-23T22:45:05.744Z,62.29
2022-08-23T22:47:35.698Z,61.97
2022-08-23T22:50:04.767Z,62.00
2022-08-23T22:52:33.253Z,62.47
2022-08-23T22:55:01.769Z,62.30
2022-08-23T22:57:30.658Z,62.29
2022-08-23T22:59:59.439Z,61.99
2022-08-23T23:02:27.978Z,62.00
2022-08-23T23:04:57.880Z,62.02
2022-08-23T23:07:40.269Z,62.54
2022-08-23T23:10:09.526Z,62.19
2022-08-23T23:12:38.293Z,62.31
2022-08-23T23:15:07.371Z,62.38
2022-08-23T23:17:36.328Z,62.43
2022-08-23T23:20:24.690Z,62.40
2022-08-23T23:22:53.203Z,62.77
2022-08-23T23:25:21.880Z,62.88
2022-08-23T23:27:51.018Z,62.48
2022-08-23T23:30:19.624Z,62.43
2022-08-23T23:32:49.242Z,62.89
2022-08-23T23:35:19.197Z,63.33
2022-08-23T23:37:49.687Z,63.40
2022-08-23T23:40:19.512Z,63.64
2022-08-23T23:42:48.144Z,64.14
2022-08-23T23:45:17.738Z,64.62
2022-08-23T23:47:46.620Z,64.39
2022-08-23T23:50:15.706Z,64.91
2022-08-23T23:52:46.558Z,65.05
2022-08-23T23:55:20.216Z,64.88
2022-08-23T23:57:48.864Z,65.15
